createdAt,value
2019-02-22T00:00:52.636Z,54.23
2019-02-22T00:03:22.093Z,61.57
2019-02-22T00:05:51.467Z,45.63
2019-02-22T00:08:20.761Z,46.70
2019-02-22T00:10:50.314Z,48.07
2019-02-22T00:13:19.597Z,46.07
2019-02-22T00:15:48.905Z,52.50
2019-02-22T00:18:18.585Z,51.67
2019-02-22T00:20:47.946Z,48.37
2019-02-22T00:23:17.614Z,50.47
2019-02-22T00:25:46.917Z,47.50
2019-02-22T00:28:16.272Z,54.23
2019-02-22T00:30:45.570Z,54.73
2019-02-22T00:33:14.880Z,50.30
2019-02-22T00:35:44.217Z,63.60
2019-02-22T00:38:13.581Z,48.33
2019-02-22T00:40:44.654Z,56.43
2019-02-22T00:43:14.245Z,51.97
2019-02-22T00:45:43.589Z,44.77
2019-02-22T00:48:12.878Z,50.80
2019-02-22T00:50:45.162Z,50.47
2019-02-22T00:53:14.468Z,55.30
2019-02-22T00:55:43.785Z,53.07
2019-02-22T00:58:13.118Z,48.37
2019-02-22T01:00:42.723Z,51.25
2019-02-22T01:03:12.141Z,52.60
2019-02-22T01:05:41.433Z,54.53
2019-02-22T01:08:10.765Z,65.47
2019-02-22T01:10:40.036Z,58.90
2019-02-22T01:13:09.320Z,51.10
2019-02-22T01:15:38.937Z,58.67
2019-02-22T01:18:08.205Z,50.20
2019-02-22T01:20:37.626Z,53.33
2019-02-22T01:23:06.939Z,49.33
2019-02-22T01:25:41.630Z,46.53
2019-02-22T01:28:11.015Z,56.47
2019-02-22T01:30:40.354Z,60.07
2019-02-22T01:33:09.658Z,59.60
2019-02-22T01:35:39.272Z,52.73
2019-02-22T01:38:08.644Z,64.23
2019-02-22T01:40:43.812Z,56.37
2019-02-22T01:43:08.945Z,51.80
2019-02-22T01:45:38.244Z,53.77
2019-02-22T01:48:07.535Z,57.93
2019-02-22T01:50:37.154Z,53.30
2019-02-22T01:53:06.428Z,58.20
2019-02-22T01:55:35.751Z,48.33
2019-02-22T01:58:05.066Z,56.03
2019-02-22T02:00:34.540Z,49.63
2019-02-22T02:03:03.922Z,61.87
2019-02-22T02:05:33.230Z,61.70
2019-02-22T02:08:02.559Z,55.80
2019-02-22T02:10:31.878Z,56.03
2019-02-22T02:13:01.429Z,60.88
2019-02-22T02:15:30.733Z,48.17
2019-02-22T02:18:00.025Z,56.40
2019-02-22T02:20:29.719Z,64.47
2019-02-22T02:22:59.099Z,54.30
2019-02-22T02:25:28.410Z,56.93
2019-02-22T02:27:57.970Z,57.20
2019-02-22T02:30:27.293Z,57.33
2019-02-22T02:32:56.625Z,53.97
2019-02-22T02:35:26.057Z,53.90
2019-02-22T02:37:55.374Z,51.20
2019-02-22T02:40:24.726Z,59.27
2019-02-22T02:42:54.373Z,52.43
2019-02-22T02:45:23.719Z,53.40
2019-02-22T02:47:53.061Z,56.67
2019-02-22T02:50:22.372Z,64.03
2019-02-22T02:52:51.663Z,61.40
2019-02-22T02:55:31.558Z,55.03
2019-02-22T02:58:00.834Z,60.77
2019-02-22T03:00:30.107Z,59.17
2019-02-22T03:02:59.653Z,60.83
2019-02-22T03:05:56.566Z,58.33
2019-02-22T03:08:28.988Z,57.67
2019-02-22T03:10:58.585Z,68.70
2019-02-22T03:13:27.960Z,71.03
2019-02-22T03:15:57.490Z,65.80
2019-02-22T03:18:27.002Z,63.80
2019-02-22T03:20:56.261Z,59.57
2019-02-22T03:23:25.552Z,64.40
2019-02-22T03:25:54.832Z,61.80
2019-02-22T03:28:24.441Z,60.27
2019-02-22T03:30:53.715Z,64.93
2019-02-22T03:33:23.029Z,58.23
2019-02-22T03:35:52.408Z,62.57
2019-02-22T03:38:21.697Z,66.37
2019-02-22T03:40:50.992Z,62.93
2019-02-22T03:43:20.262Z,60.60
2019-02-22T03:45:49.900Z,66.03
2019-02-22T03:48:19.228Z,56.23
2019-02-22T03:50:48.718Z,59.43
2019-02-22T03:53:42.698Z,51.57
2019-02-22T03:56:14.542Z,51.60
2019-02-22T03:58:45.648Z,60.90
2019-02-22T04:01:14.945Z,65.73
2019-02-22T04:03:44.237Z,63.77
2019-02-22T04:06:13.615Z,59.80
2019-02-22T04:08:43.148Z,51.00
2019-02-22T04:11:12.479Z,63.63
2019-02-22T04:13:41.745Z,54.37
2019-02-22T04:16:11.084Z,52.73
2019-02-22T04:18:40.431Z,63.87
2019-02-22T04:21:09.763Z,61.00
2019-02-22T04:23:39.057Z,59.97
2019-02-22T04:26:08.361Z,62.03
2019-02-22T04:28:37.634Z,66.50
2019-02-22T04:31:06.958Z,68.03
2019-02-22T04:33:36.297Z,65.10
2019-02-22T04:36:06.303Z,65.50
2019-02-22T04:38:35.910Z,66.00
2019-02-22T04:41:05.261Z,60.27
2019-02-22T04:47:14.837Z,66.40
2019-02-22T04:49:44.178Z,59.23
2019-02-22T04:52:13.485Z,67.83
2019-02-22T04:54:43.083Z,75.23
2019-02-22T04:57:12.372Z,61.80
2019-02-22T04:59:41.711Z,69.97
2019-02-22T05:02:11.000Z,68.97
2019-02-22T05:04:40.258Z,69.97
2019-02-22T05:07:09.538Z,63.67
2019-02-22T05:09:39.062Z,59.37
2019-02-22T05:12:11.124Z,67.67
2019-02-22T05:14:39.344Z,63.10
2019-02-22T05:17:08.996Z,58.40
2019-02-22T05:19:38.364Z,58.90
2019-02-22T05:22:07.749Z,54.53
2019-02-22T05:24:37.116Z,58.83
2019-02-22T05:27:06.469Z,67.93
2019-02-22T05:29:36.019Z,69.27
2019-02-22T05:32:05.287Z,65.87
2019-02-22T05:34:34.544Z,73.23
2019-02-22T05:37:03.942Z,69.93
2019-02-22T05:39:34.262Z,71.07
2019-02-22T05:42:03.552Z,70.00
2019-02-22T05:44:32.811Z,76.40
2019-02-22T05:47:02.663Z,71.10
2019-02-22T05:49:31.977Z,77.13
2019-02-22T05:52:01.590Z,69.97
2019-02-22T05:54:30.916Z,78.37
2019-02-22T05:57:00.318Z,75.40
2019-02-22T05:59:29.610Z,64.10
2019-02-22T06:01:58.876Z,75.60
2019-02-22T06:04:28.169Z,59.20
2019-02-22T06:06:57.518Z,69.60
2019-02-22T06:09:26.801Z,64.47
2019-02-22T06:11:56.082Z,69.57
2019-02-22T06:14:25.356Z,66.77
2019-02-22T06:16:54.655Z,76.30
2019-02-22T06:19:24.211Z,63.60
2019-02-22T06:21:53.570Z,55.77
2019-02-22T06:24:22.898Z,54.93
2019-02-22T06:26:52.471Z,57.65
2019-02-22T06:29:21.962Z,59.37
2019-02-22T06:31:51.365Z,63.90
2019-02-22T06:34:21.066Z,58.17
2019-02-22T06:37:01.177Z,52.57
2019-02-22T06:39:21.429Z,56.37
2019-02-22T06:41:50.766Z,85.57
2019-02-22T06:44:20.138Z,63.17
2019-02-22T06:46:49.416Z,58.57
2019-02-22T06:49:18.694Z,55.17
2019-02-22T06:51:48.029Z,58.57
2019-02-22T06:54:17.307Z,63.80
2019-02-22T06:56:47.050Z,47.83
2019-02-22T06:59:16.547Z,57.40
2019-02-22T07:01:46.000Z,53.00
2019-02-22T07:04:15.321Z,53.90
2019-02-22T07:06:44.649Z,62.77
2019-02-22T07:09:13.943Z,61.43
2019-02-22T07:11:50.877Z,51.83
2019-02-22T07:14:20.186Z,48.57
2019-02-22T07:16:49.494Z,51.17
2019-02-22T07:19:18.761Z,53.87
2019-02-22T07:21:52.835Z,51.37
2019-02-22T07:24:19.322Z,50.40
2019-02-22T07:26:48.724Z,53.43
2019-02-22T07:29:18.007Z,57.83
2019-02-22T07:31:47.346Z,56.33
2019-02-22T07:34:16.633Z,46.57
2019-02-22T07:36:45.942Z,53.30
2019-02-22T07:39:27.061Z,47.53
2019-02-22T07:41:47.654Z,45.60
2019-02-22T07:44:16.947Z,54.73
2019-02-22T07:46:47.018Z,50.90
2019-02-22T07:49:25.849Z,45.90
2019-02-22T07:51:55.136Z,49.57
2019-02-22T07:54:24.443Z,45.23
2019-02-22T07:56:53.822Z,48.10
2019-02-22T07:59:23.208Z,43.67
2019-02-22T08:01:52.561Z,50.37
2019-02-22T08:04:21.887Z,50.70
2019-02-22T08:06:51.173Z,45.63
2019-02-22T08:09:20.541Z,51.57
2019-02-22T08:11:49.822Z,44.90
2019-02-22T08:14:19.135Z,42.63
2019-02-22T08:16:48.397Z,48.50
2019-02-22T08:19:17.957Z,45.47
2019-02-22T08:21:47.255Z,42.30
2019-02-22T08:24:16.644Z,52.07
2019-02-22T08:26:45.957Z,49.33
2019-02-22T08:29:15.289Z,54.37
2019-02-22T08:31:44.687Z,46.33
2019-02-22T08:34:13.981Z,51.33
2019-02-22T08:36:43.366Z,48.30
2019-02-22T08:39:12.655Z,50.97
2019-02-22T08:41:42.301Z,43.50
2019-02-22T08:44:11.604Z,50.10
2019-02-22T08:46:40.878Z,50.60
2019-02-22T08:49:10.443Z,45.37
2019-02-22T08:51:39.748Z,47.13
2019-02-22T08:54:09.063Z,46.73
2019-02-22T08:56:38.645Z,48.60
2019-02-22T08:59:07.933Z,43.67
2019-02-22T09:01:37.653Z,41.00
2019-02-22T09:04:07.355Z,41.23
2019-02-22T09:06:36.960Z,46.90
2019-02-22T09:09:06.401Z,48.00
2019-02-22T09:11:35.847Z,40.03
2019-02-22T09:14:05.133Z,42.30
2019-02-22T09:16:34.450Z,50.17
2019-02-22T09:19:03.970Z,49.27
2019-02-22T09:21:33.350Z,46.53
2019-02-22T09:24:02.973Z,46.77
2019-02-22T09:26:32.350Z,42.40
2019-02-22T09:29:01.689Z,41.70
2019-02-22T09:31:31.017Z,38.63
2019-02-22T09:34:00.304Z,40.10
2019-02-22T09:36:29.652Z,38.67
2019-02-22T09:38:59.088Z,38.73
2019-02-22T09:41:28.452Z,37.30
2019-02-22T09:43:57.749Z,39.37
2019-02-22T09:46:27.039Z,44.47
2019-02-22T09:48:58.687Z,43.97
2019-02-22T09:51:28.036Z,43.50
2019-02-22T09:53:57.324Z,37.60
2019-02-22T09:56:26.597Z,37.47
2019-02-22T09:58:55.908Z,34.07
2019-02-22T10:01:25.188Z,31.77
2019-02-22T10:03:54.549Z,31.80
2019-02-22T10:06:23.906Z,26.30
2019-02-22T10:08:53.189Z,28.33
2019-02-22T10:11:22.474Z,32.50
2019-02-22T10:13:51.853Z,30.13
2019-02-22T10:16:21.133Z,26.73
2019-02-22T10:18:50.432Z,27.73
2019-02-22T10:21:19.780Z,23.07
2019-02-22T10:23:49.379Z,25.40
2019-02-22T10:26:18.635Z,21.97
2019-02-22T10:28:48.219Z,26.30
2019-02-22T10:31:17.511Z,29.53
2019-02-22T10:33:47.097Z,36.87
2019-02-22T10:36:16.383Z,39.77
2019-02-22T10:38:46.181Z,37.83
2019-02-22T10:41:15.763Z,34.30
2019-02-22T10:43:45.063Z,29.70
2019-02-22T10:46:14.333Z,26.03
2019-02-22T10:48:43.901Z,28.33
2019-02-22T10:51:13.187Z,25.70
2019-02-22T10:53:42.479Z,24.27
2019-02-22T10:56:11.789Z,20.87
2019-02-22T10:58:41.079Z,18.93
2019-02-22T11:01:10.553Z,24.20
2019-02-22T11:03:39.890Z,23.43
2019-02-22T11:06:09.218Z,22.37
2019-02-22T11:08:38.761Z,26.50
2019-02-22T11:11:08.102Z,23.90
2019-02-22T11:13:37.400Z,29.37
2019-02-22T11:16:07.065Z,29.13
2019-02-22T11:18:36.352Z,30.77
2019-02-22T11:21:05.638Z,25.23
2019-02-22T11:23:34.997Z,29.07
2019-02-22T11:26:04.309Z,29.77
2019-02-22T11:28:33.594Z,39.87
2019-02-22T11:31:03.249Z,30.83
2019-02-22T11:33:32.546Z,31.20
2019-02-22T11:36:01.852Z,41.57
2019-02-22T11:38:31.237Z,46.73
2019-02-22T11:41:00.549Z,32.37
2019-02-22T11:43:29.866Z,33.70
2019-02-22T11:45:59.147Z,30.20
2019-02-22T11:48:28.509Z,31.77
2019-02-22T11:50:57.798Z,38.87
2019-02-22T11:53:27.190Z,36.13
2019-02-22T11:55:56.558Z,34.53
2019-02-22T11:58:25.879Z,36.50
2019-02-22T12:00:55.273Z,32.33
2019-02-22T12:03:25.271Z,36.93
2019-02-22T12:05:54.892Z,47.53
2019-02-22T12:08:25.191Z,42.20
2019-02-22T12:10:54.498Z,40.50
2019-02-22T12:13:24.106Z,41.60
2019-02-22T12:15:53.429Z,38.13
2019-02-22T12:18:22.758Z,38.30
2019-02-22T12:20:52.053Z,53.93
2019-02-22T12:23:21.369Z,49.20
2019-02-22T12:25:50.759Z,57.90
2019-02-22T12:28:20.320Z,46.13
2019-02-22T12:30:49.636Z,47.43
2019-02-22T12:33:19.054Z,43.70
2019-02-22T12:35:48.402Z,31.63
2019-02-22T12:38:19.837Z,28.47
2019-02-22T12:40:49.484Z,34.97
2019-02-22T12:43:18.852Z,32.33
2019-02-22T12:45:48.134Z,21.50
2019-02-22T12:48:17.776Z,32.33
2019-02-22T12:50:47.153Z,31.93
2019-02-22T12:53:16.846Z,22.33
2019-02-22T12:55:46.132Z,25.20
2019-02-22T12:58:15.554Z,25.53
2019-02-22T13:00:46.740Z,21.70
2019-02-22T13:03:16.061Z,25.03
2019-02-22T13:05:45.427Z,28.10
2019-02-22T13:08:14.802Z,20.47
2019-02-22T13:10:44.254Z,27.67
2019-02-22T13:13:13.574Z,22.90
2019-02-22T13:15:42.814Z,28.73
2019-02-22T13:18:12.112Z,23.07
2019-02-22T13:20:41.661Z,20.47
2019-02-22T13:23:11.101Z,22.63
2019-02-22T13:25:40.399Z,27.10
2019-02-22T13:28:09.694Z,21.30
2019-02-22T13:30:39.017Z,22.77
2019-02-22T13:33:08.302Z,22.67
2019-02-22T13:35:37.612Z,25.30
2019-02-22T13:38:06.917Z,25.50
2019-02-22T13:40:36.239Z,26.00
2019-02-22T13:43:05.570Z,21.97
2019-02-22T13:45:35.294Z,20.87
2019-02-22T13:48:04.614Z,21.67
2019-02-22T13:50:34.014Z,22.53
2019-02-22T13:53:03.384Z,27.73
2019-02-22T13:55:32.707Z,27.13
2019-02-22T13:58:02.025Z,22.07
2019-02-22T14:00:31.350Z,21.13
2019-02-22T14:03:05.124Z,23.00
2019-02-22T14:05:38.942Z,17.97
2019-02-22T14:08:12.079Z,24.73
2019-02-22T14:10:43.823Z,22.50
2019-02-22T14:13:15.861Z,18.10
2019-02-22T14:15:45.602Z,10.53
2019-02-22T14:18:14.984Z,20.90
2019-02-22T14:20:44.339Z,21.13
2019-02-22T14:23:13.663Z,19.27
2019-02-22T14:25:44.608Z,21.07
2019-02-22T14:28:14.393Z,22.10
2019-02-22T14:30:43.810Z,19.03
2019-02-22T14:33:13.170Z,20.60
2019-02-22T14:35:44.751Z,16.57
2019-02-22T14:38:14.397Z,24.57
2019-02-22T14:40:46.785Z,22.33
2019-02-22T14:43:17.015Z,23.70
2019-02-22T14:45:50.553Z,24.20
2019-02-22T14:48:18.650Z,25.50
2019-02-22T14:50:47.946Z,22.40
2019-02-22T14:53:19.782Z,27.90
2019-02-22T14:55:48.285Z,24.50
2019-02-22T14:58:17.677Z,25.00
2019-02-22T15:00:47.385Z,24.27
2019-02-22T15:03:17.145Z,27.47
2019-02-22T15:05:46.631Z,24.80
2019-02-22T15:08:16.031Z,18.90
2019-02-22T15:10:45.709Z,28.60
2019-02-22T15:13:16.741Z,28.43
2019-02-22T15:16:05.339Z,22.83
2019-02-22T15:18:35.108Z,27.90
2019-02-22T15:21:04.787Z,26.57
2019-02-22T15:23:34.135Z,24.37
2019-02-22T15:26:03.558Z,24.10
2019-02-22T15:28:32.941Z,23.23
2019-02-22T15:31:02.322Z,27.10
2019-02-22T15:33:32.064Z,23.57
2019-02-22T15:36:01.398Z,24.10
2019-02-22T15:38:30.727Z,24.97
2019-02-22T15:41:00.403Z,27.77
2019-02-22T15:43:30.078Z,23.03
2019-02-22T15:45:59.676Z,23.03
2019-02-22T15:48:29.390Z,29.77
2019-02-22T15:50:58.732Z,28.60
2019-02-22T15:53:28.041Z,28.10
2019-02-22T15:55:57.361Z,25.60
2019-02-22T15:58:26.716Z,31.50
2019-02-22T16:00:56.039Z,33.87
2019-02-22T16:03:26.908Z,24.87
2019-02-22T16:05:56.277Z,25.83
2019-02-22T16:08:25.687Z,31.40
2019-02-22T16:10:55.260Z,24.17
2019-02-22T16:13:25.018Z,24.90
2019-02-22T16:15:54.370Z,30.50
2019-02-22T16:18:23.822Z,30.03
2019-02-22T16:20:53.138Z,29.33
2019-02-22T16:23:22.500Z,28.13
2019-02-22T16:25:51.832Z,24.17
2019-02-22T16:28:21.204Z,31.77
2019-02-22T16:30:50.590Z,28.70
2019-02-22T16:33:20.366Z,26.67
2019-02-22T16:35:51.823Z,28.40
2019-02-22T16:38:21.750Z,25.90
2019-02-22T16:40:51.407Z,31.70
2019-02-22T16:43:20.749Z,36.27
2019-02-22T16:45:50.050Z,26.63
2019-02-22T16:48:19.511Z,31.40
2019-02-22T16:50:48.969Z,29.50
2019-02-22T16:53:18.380Z,36.43
2019-02-22T16:55:47.677Z,29.50
2019-02-22T16:58:19.689Z,31.17
2019-02-22T17:00:49.060Z,30.33
2019-02-22T17:03:19.265Z,27.33
2019-02-22T17:05:51.077Z,30.17
2019-02-22T17:08:21.038Z,31.90
2019-02-22T17:10:51.652Z,33.90
2019-02-22T17:13:21.069Z,31.97
2019-02-22T17:15:50.348Z,33.33
2019-02-22T17:18:19.899Z,30.93
2019-02-22T17:20:49.258Z,28.10
2019-02-22T17:23:19.900Z,28.63
2019-02-22T17:25:49.226Z,31.57
2019-02-22T17:28:18.641Z,22.73
2019-02-22T17:30:48.360Z,26.83
2019-02-22T17:33:17.718Z,26.63
2019-02-22T17:35:47.062Z,30.00
2019-02-22T17:38:16.404Z,30.20
2019-02-22T17:40:45.763Z,28.97
2019-02-22T17:43:15.089Z,27.67
2019-02-22T17:45:44.539Z,32.77
2019-02-22T17:48:18.290Z,30.30
2019-02-22T17:50:48.447Z,39.20
2019-02-22T17:53:17.865Z,22.87
2019-02-22T17:55:47.585Z,29.60
2019-02-22T17:58:24.414Z,30.73
2019-02-22T18:00:48.641Z,32.43
2019-02-22T18:03:17.989Z,32.27
2019-02-22T18:05:47.305Z,32.50
2019-02-22T18:08:22.606Z,29.33
2019-02-22T18:10:53.070Z,27.67
2019-02-22T18:13:22.532Z,26.33
2019-02-22T18:15:51.993Z,35.10
2019-02-22T18:18:22.757Z,34.20
2019-02-22T18:20:52.183Z,29.90
2019-02-22T18:23:21.593Z,40.00
2019-02-22T18:25:50.994Z,36.13
2019-02-22T18:28:20.291Z,44.47
2019-02-22T18:30:50.309Z,37.50
2019-02-22T18:33:19.739Z,45.50
2019-02-22T18:35:49.067Z,41.63
2019-02-22T18:38:19.284Z,36.20
2019-02-22T18:40:48.629Z,34.47
2019-02-22T18:43:18.439Z,37.13
2019-02-22T18:45:48.182Z,38.20
2019-02-22T18:48:17.991Z,42.23
2019-02-22T18:50:47.290Z,38.30
2019-02-22T18:53:16.662Z,37.30
2019-02-22T18:55:50.287Z,39.90
2019-02-22T18:58:17.122Z,45.67
2019-02-22T19:00:46.723Z,42.23
2019-02-22T19:03:16.076Z,38.47
2019-02-22T19:05:45.364Z,52.37
2019-02-22T19:08:14.794Z,38.93
2019-02-22T19:10:44.111Z,38.13
2019-02-22T19:13:13.789Z,40.13
2019-02-22T19:15:43.523Z,30.23
2019-02-22T19:18:12.969Z,40.23
2019-02-22T19:20:42.263Z,40.83
2019-02-22T19:23:12.178Z,40.47
2019-02-22T19:25:41.531Z,41.13
2019-02-22T19:28:10.911Z,37.23
2019-02-22T19:30:40.661Z,36.73
2019-02-22T19:33:10.242Z,32.90
2019-02-22T19:35:39.890Z,32.20
2019-02-22T19:38:09.498Z,36.83
2019-02-22T19:40:38.820Z,34.97
2019-02-22T19:43:08.622Z,36.63
2019-02-22T19:45:37.893Z,35.23
2019-02-22T19:48:07.218Z,34.63
2019-02-22T19:50:41.356Z,30.77
2019-02-22T19:53:07.664Z,38.13
2019-02-22T19:55:36.978Z,30.40
2019-02-22T19:58:06.344Z,36.80
2019-02-22T20:00:35.670Z,36.37
2019-02-22T20:03:05.185Z,30.17
2019-02-22T20:05:34.510Z,27.40
2019-02-22T20:08:03.892Z,30.83
2019-02-22T20:10:34.513Z,30.73
2019-02-22T20:13:05.970Z,31.50
2019-02-22T20:15:35.268Z,32.77
2019-02-22T20:18:06.296Z,31.50
2019-02-22T20:20:35.699Z,27.10
2019-02-22T20:23:05.168Z,28.73
2019-02-22T20:25:34.542Z,32.73
2019-02-22T20:28:03.864Z,33.33
2019-02-22T20:30:33.522Z,38.20
2019-02-22T20:33:03.191Z,34.60
2019-02-22T20:35:32.999Z,32.23
2019-02-22T20:38:02.617Z,35.43
2019-02-22T20:40:32.301Z,31.10
2019-02-22T20:43:01.899Z,34.93
2019-02-22T20:45:31.221Z,25.13
2019-02-22T20:48:05.259Z,32.70
2019-02-22T20:50:31.710Z,35.20
2019-02-22T20:53:00.996Z,29.47
2019-02-22T20:55:30.322Z,32.00
2019-02-22T20:57:59.641Z,31.87
2019-02-22T21:00:29.041Z,32.57
2019-02-22T21:02:58.682Z,34.27
2019-02-22T21:05:28.948Z,35.27
2019-02-22T21:07:58.286Z,39.10
2019-02-22T21:10:27.745Z,43.47
2019-02-22T21:12:57.490Z,34.30
2019-02-22T21:15:26.913Z,31.37
2019-02-22T21:17:56.244Z,32.10
2019-02-22T21:20:25.556Z,35.07
2019-02-22T21:22:54.874Z,37.03
2019-02-22T21:25:24.525Z,30.97
2019-02-22T21:27:53.925Z,32.83
2019-02-22T21:30:23.225Z,31.47
2019-02-22T21:32:52.588Z,31.10
2019-02-22T21:35:21.891Z,35.30
2019-02-22T21:37:51.216Z,33.97
2019-02-22T21:40:20.565Z,26.70
2019-02-22T21:42:50.144Z,31.00
2019-02-22T21:45:19.837Z,31.13
2019-02-22T21:47:54.769Z,30.50
2019-02-22T21:50:20.220Z,30.53
2019-02-22T21:52:49.534Z,34.93
2019-02-22T21:55:18.865Z,28.60
2019-02-22T21:57:48.264Z,28.30
2019-02-22T22:00:18.618Z,31.93
2019-02-22T22:02:48.391Z,29.83
2019-02-22T22:05:18.157Z,32.80
2019-02-22T22:07:47.578Z,32.13
2019-02-22T22:10:16.897Z,33.97
2019-02-22T22:12:46.200Z,34.30
2019-02-22T22:15:15.528Z,34.07
2019-02-22T22:17:44.876Z,33.20
2019-02-22T22:20:14.216Z,35.17
2019-02-22T22:22:43.529Z,29.07
2019-02-22T22:25:12.882Z,29.90
2019-02-22T22:27:42.209Z,26.83
2019-02-22T22:30:13.216Z,25.10
2019-02-22T22:32:42.851Z,29.23
2019-02-22T22:35:12.260Z,30.27
2019-02-22T22:37:41.557Z,32.43
2019-02-22T22:40:11.078Z,33.53
2019-02-22T22:42:40.391Z,29.10
2019-02-22T22:45:10.797Z,30.10
2019-02-22T22:47:40.164Z,26.17
2019-02-22T22:50:10.993Z,32.57
2019-02-22T22:52:40.281Z,25.77
2019-02-22T22:55:09.930Z,29.87
2019-02-22T22:57:39.228Z,28.60
2019-02-22T23:00:20.984Z,27.37
2019-02-22T23:02:50.327Z,25.57
2019-02-22T23:05:19.619Z,24.87
2019-02-22T23:07:48.947Z,28.73
2019-02-22T23:10:18.236Z,29.80
2019-02-22T23:12:47.522Z,32.13
2019-02-22T23:15:16.845Z,22.70
2019-02-22T23:17:46.122Z,30.90
2019-02-22T23:20:15.408Z,36.37
2019-02-22T23:22:45.045Z,26.90
2019-02-22T23:25:14.352Z,23.90
2019-02-22T23:27:43.688Z,28.33
2019-02-22T23:30:13.020Z,25.23
2019-02-22T23:32:42.341Z,30.40
2019-02-22T23:35:11.624Z,27.13
2019-02-22T23:37:41.029Z,22.73
2019-02-22T23:40:10.325Z,32.17
2019-02-22T23:42:39.647Z,29.13
2019-02-22T23:45:09.249Z,23.33
2019-02-22T23:47:38.616Z,21.15
2019-02-22T23:50:08.315Z,25.30
2019-02-22T23:52:37.706Z,33.30
2019-02-22T23:55:07.122Z,21.47
2019-02-22T23:57:36.417Z,19.70
